createdAt,value
2022-12-05T00:00:55.115Z,18.13
2022-12-05T00:03:22.148Z,20.83
2022-12-05T00:05:49.108Z,22.87
2022-12-05T00:08:15.581Z,21.87
2022-12-05T00:10:42.173Z,22.07
2022-12-05T00:13:09.178Z,19.57
2022-12-05T00:15:40.115Z,19.97
2022-12-05T00:18:06.499Z,21.83
2022-12-05T00:20:33.232Z,22.20
2022-12-05T00:23:00.168Z,22.50
2022-12-05T00:25:26.579Z,23.30
2022-12-05T00:27:52.946Z,21.63
2022-12-05T00:30:19.399Z,26.73
2022-12-05T00:32:45.711Z,21.50
2022-12-05T00:35:12.101Z,21.90
2022-12-05T00:37:38.416Z,23.43
2022-12-05T00:40:05.567Z,22.40
2022-12-05T00:42:31.969Z,24.23
2022-12-05T00:44:58.309Z,20.30
2022-12-05T00:47:24.607Z,21.63
2022-12-05T00:49:51.002Z,24.67
2022-12-05T00:52:17.303Z,21.77
2022-12-05T00:54:43.793Z,24.00
2022-12-05T00:57:10.306Z,22.80
2022-12-05T00:59:36.802Z,24.57
2022-12-05T01:02:03.258Z,25.30
2022-12-05T01:04:29.609Z,21.37
2022-12-05T01:06:57.378Z,21.67
2022-12-05T01:09:25.130Z,25.17
2022-12-05T01:11:51.871Z,21.87
2022-12-05T01:14:21.083Z,20.87
2022-12-05T01:16:49.334Z,23.60
2022-12-05T01:19:19.244Z,22.80
2022-12-05T01:21:47.858Z,23.27
2022-12-05T01:24:14.841Z,21.63
2022-12-05T01:26:42.425Z,21.90
2022-12-05T01:29:10.142Z,22.97
2022-12-05T01:31:37.569Z,20.03
2022-12-05T01:34:07.175Z,21.97
2022-12-05T01:36:34.129Z,23.37
2022-12-05T01:39:00.904Z,20.47
2022-12-05T01:41:30.139Z,21.70
2022-12-05T01:44:26.865Z,21.10
2022-12-05T01:46:54.271Z,24.23
2022-12-05T01:49:39.697Z,21.50
2022-12-05T01:52:10.185Z,22.43
2022-12-05T01:54:37.907Z,22.83
2022-12-05T01:57:08.522Z,21.50
2022-12-05T01:59:39.443Z,20.97
2022-12-05T02:02:08.000Z,21.47
2022-12-05T02:04:42.028Z,21.60
2022-12-05T02:07:08.402Z,23.37
2022-12-05T02:09:36.441Z,24.53
2022-12-05T02:12:03.386Z,22.37
2022-12-05T02:14:29.901Z,21.03
2022-12-05T02:17:33.534Z,22.10
2022-12-05T02:20:08.299Z,22.20
2022-12-05T02:23:11.197Z,24.87
2022-12-05T02:26:05.106Z,22.43
2022-12-05T02:28:51.307Z,22.67
2022-12-05T02:31:52.095Z,22.33
2022-12-05T02:34:27.824Z,24.60
2022-12-05T02:37:03.424Z,22.93
2022-12-05T02:39:41.450Z,24.07
2022-12-05T02:42:52.968Z,24.27
2022-12-05T02:45:22.465Z,25.40
2022-12-05T02:47:52.786Z,27.70
2022-12-05T02:50:23.559Z,22.90
2022-12-05T02:52:53.911Z,26.90
2022-12-05T02:55:21.370Z,23.90
2022-12-05T02:57:54.609Z,25.73
2022-12-05T03:00:21.813Z,28.40
2022-12-05T03:02:51.039Z,22.30
2022-12-05T03:05:29.579Z,22.93
2022-12-05T03:07:58.295Z,21.80
2022-12-05T03:10:28.685Z,22.73
2022-12-05T03:13:00.852Z,20.37
2022-12-05T03:15:35.289Z,22.27
2022-12-05T03:18:25.832Z,21.80
2022-12-05T03:21:02.251Z,20.43
2022-12-05T03:23:34.447Z,21.23
2022-12-05T03:26:12.002Z,20.13
2022-12-05T03:29:22.747Z,22.17
2022-12-05T03:32:00.617Z,22.37
2022-12-05T03:34:39.248Z,22.53
2022-12-05T03:37:13.466Z,22.90
2022-12-05T03:39:48.078Z,24.13
2022-12-05T03:42:20.800Z,23.03
2022-12-05T03:44:54.626Z,21.20
2022-12-05T03:47:28.898Z,20.37
2022-12-05T03:50:04.029Z,20.57
2022-12-05T03:52:56.911Z,18.00
2022-12-05T03:55:24.055Z,18.40
2022-12-05T03:57:57.164Z,22.43
2022-12-05T04:00:24.924Z,21.57
2022-12-05T04:02:57.391Z,20.93
2022-12-05T04:05:32.280Z,22.50
2022-12-05T04:08:04.616Z,23.80
2022-12-05T04:10:48.279Z,20.97
2022-12-05T04:13:32.776Z,21.07
2022-12-05T04:16:23.367Z,21.83
2022-12-05T04:18:58.650Z,18.07
2022-12-05T04:21:40.044Z,19.83
2022-12-05T04:24:29.512Z,20.63
2022-12-05T04:27:09.064Z,20.00
2022-12-05T04:29:44.705Z,18.77
2022-12-05T04:32:13.571Z,20.57
2022-12-05T04:34:44.447Z,17.47
2022-12-05T04:37:16.564Z,22.70
2022-12-05T04:40:16.032Z,19.23
2022-12-05T04:42:44.142Z,19.13
2022-12-05T04:45:13.070Z,20.40
2022-12-05T04:47:44.558Z,19.77
2022-12-05T04:50:14.623Z,20.07
2022-12-05T04:52:43.779Z,18.23
2022-12-05T04:55:15.077Z,18.97
2022-12-05T04:58:11.783Z,19.80
2022-12-05T05:00:53.461Z,19.90
2022-12-05T05:03:35.055Z,18.47
2022-12-05T05:06:02.033Z,18.90
2022-12-05T05:08:29.525Z,24.20
2022-12-05T05:11:06.015Z,26.97
2022-12-05T05:13:32.372Z,33.17
2022-12-05T05:15:58.877Z,24.43
2022-12-05T05:18:25.262Z,23.37
2022-12-05T05:20:51.598Z,19.87
2022-12-05T05:23:17.901Z,21.57
2022-12-05T05:25:44.257Z,22.73
2022-12-05T05:28:10.610Z,21.07
2022-12-05T05:30:36.924Z,19.43
2022-12-05T05:33:03.296Z,18.70
2022-12-05T05:35:29.650Z,22.07
2022-12-05T05:37:56.021Z,20.47
2022-12-05T05:40:23.133Z,20.43
2022-12-05T05:42:50.842Z,25.17
2022-12-05T05:45:17.550Z,24.80
2022-12-05T05:47:44.658Z,34.60
2022-12-05T05:50:14.982Z,43.37
2022-12-05T05:52:42.782Z,29.00
2022-12-05T05:55:09.850Z,31.20
2022-12-05T05:57:36.719Z,26.10
2022-12-05T06:00:07.210Z,28.17
2022-12-05T06:02:35.494Z,23.90
2022-12-05T06:05:02.111Z,28.60
2022-12-05T06:07:29.130Z,22.27
2022-12-05T06:09:56.042Z,20.90
2022-12-05T06:12:22.792Z,17.87
2022-12-05T06:14:50.721Z,20.03
2022-12-05T06:17:17.669Z,18.97
2022-12-05T06:19:44.046Z,19.70
2022-12-05T06:22:10.426Z,19.27
2022-12-05T06:24:36.826Z,18.00
2022-12-05T06:27:03.193Z,19.13
2022-12-05T06:29:33.592Z,20.63
2022-12-05T06:32:00.537Z,16.20
2022-12-05T06:34:27.046Z,17.40
2022-12-05T06:36:53.413Z,19.83
2022-12-05T06:39:19.826Z,18.53
2022-12-05T06:41:48.121Z,18.30
2022-12-05T06:44:14.486Z,16.53
2022-12-05T06:46:40.851Z,18.90
2022-12-05T06:49:07.240Z,16.43
2022-12-05T06:51:33.580Z,18.10
2022-12-05T06:54:00.070Z,19.03
2022-12-05T06:56:26.605Z,16.60
2022-12-05T06:58:53.422Z,16.63
2022-12-05T07:01:41.662Z,17.47
2022-12-05T07:04:10.831Z,15.97
2022-12-05T07:06:37.893Z,16.03
2022-12-05T07:09:05.161Z,16.07
2022-12-05T07:11:31.570Z,14.00
2022-12-05T07:13:58.064Z,16.93
2022-12-05T07:16:24.726Z,19.73
2022-12-05T07:18:51.431Z,19.77
2022-12-05T07:21:18.619Z,18.27
2022-12-05T07:23:46.340Z,17.77
2022-12-05T07:26:15.647Z,16.13
2022-12-05T07:28:42.429Z,15.53
2022-12-05T07:31:11.494Z,13.27
2022-12-05T07:33:38.338Z,14.40
2022-12-05T07:36:07.725Z,14.73
2022-12-05T07:38:34.155Z,13.23
2022-12-05T07:41:08.960Z,13.80
2022-12-05T07:43:38.146Z,14.97
2022-12-05T07:46:06.415Z,13.60
2022-12-05T07:48:33.116Z,13.87
2022-12-05T07:51:04.399Z,14.43
2022-12-05T07:53:32.333Z,15.60
2022-12-05T07:56:00.658Z,17.83
2022-12-05T07:58:28.714Z,19.67
2022-12-05T08:00:55.806Z,14.90
2022-12-05T08:03:22.297Z,19.70
2022-12-05T08:05:49.181Z,19.80
2022-12-05T08:08:15.782Z,17.17
2022-12-05T08:10:42.171Z,19.37
2022-12-05T08:13:08.656Z,17.27
2022-12-05T08:15:36.633Z,17.43
2022-12-05T08:18:03.511Z,14.80
2022-12-05T08:20:30.622Z,14.97
2022-12-05T08:22:57.273Z,15.47
2022-12-05T08:25:23.695Z,14.53
2022-12-05T08:27:50.249Z,16.50
2022-12-05T08:30:16.705Z,16.27
2022-12-05T08:32:43.069Z,15.37
2022-12-05T08:35:10.244Z,17.13
2022-12-05T08:37:36.582Z,14.77
2022-12-05T08:40:03.732Z,15.90
2022-12-05T08:42:30.153Z,14.23
2022-12-05T08:44:56.722Z,13.43
2022-12-05T08:47:23.324Z,16.00
2022-12-05T08:49:49.742Z,14.10
2022-12-05T08:52:16.132Z,16.03
2022-12-05T08:54:42.616Z,14.90
2022-12-05T08:57:08.986Z,14.33
2022-12-05T08:59:35.415Z,18.00
2022-12-05T09:02:01.900Z,14.60
2022-12-05T09:04:28.897Z,18.07
2022-12-05T09:06:55.249Z,17.50
2022-12-05T09:09:21.643Z,17.87
2022-12-05T09:11:50.898Z,20.80
2022-12-05T09:14:17.761Z,18.33
2022-12-05T09:16:46.145Z,22.93
2022-12-05T09:19:16.206Z,17.77
2022-12-05T09:21:43.446Z,19.27
2022-12-05T09:24:14.206Z,20.60
2022-12-05T09:26:41.444Z,18.53
2022-12-05T09:29:14.191Z,19.67
2022-12-05T09:31:45.659Z,18.37
2022-12-05T09:34:14.056Z,18.13
2022-12-05T09:36:41.182Z,17.57
2022-12-05T09:39:08.341Z,19.57
2022-12-05T09:42:05.908Z,19.90
2022-12-05T09:44:54.667Z,19.00
2022-12-05T09:47:37.218Z,17.43
2022-12-05T09:50:19.210Z,19.13
2022-12-05T09:53:15.541Z,19.37
2022-12-05T09:55:45.028Z,18.63
2022-12-05T09:58:30.141Z,20.27
2022-12-05T10:01:04.435Z,21.13
2022-12-05T10:03:43.174Z,19.97
2022-12-05T10:06:23.394Z,21.80
2022-12-05T10:09:31.750Z,21.93
2022-12-05T10:12:32.689Z,22.67
2022-12-05T10:15:30.570Z,19.67
2022-12-05T10:18:03.047Z,19.53
2022-12-05T10:20:36.507Z,19.27
2022-12-05T10:23:18.627Z,21.37
2022-12-05T10:25:59.012Z,20.77
2022-12-05T10:28:40.725Z,20.40
2022-12-05T10:31:12.358Z,21.53
2022-12-05T10:33:44.719Z,17.53
2022-12-05T10:36:16.461Z,18.80
2022-12-05T10:38:44.909Z,24.43
2022-12-05T10:41:15.051Z,21.90
2022-12-05T10:43:44.383Z,18.80
2022-12-05T10:46:16.781Z,22.53
2022-12-05T10:48:43.877Z,20.80
2022-12-05T10:51:15.568Z,21.57
2022-12-05T10:53:43.761Z,23.47
2022-12-05T10:56:36.263Z,19.13
2022-12-05T10:59:04.294Z,22.93
2022-12-05T11:01:31.312Z,25.33
2022-12-05T11:04:01.953Z,21.50
2022-12-05T11:06:31.628Z,28.07
2022-12-05T11:09:33.815Z,26.20
2022-12-05T11:12:36.244Z,26.90
2022-12-05T11:15:19.294Z,28.30
2022-12-05T11:17:47.348Z,26.73
2022-12-05T11:20:19.764Z,27.80
2022-12-05T11:22:52.102Z,24.47
2022-12-05T11:25:33.112Z,28.40
2022-12-05T11:28:20.666Z,27.80
2022-12-05T11:30:56.080Z,29.10
2022-12-05T11:33:24.477Z,29.67
2022-12-05T11:35:54.023Z,26.97
2022-12-05T11:38:26.003Z,28.47
2022-12-05T11:40:54.948Z,29.47
2022-12-05T11:43:24.329Z,27.53
2022-12-05T11:46:27.012Z,29.50
2022-12-05T11:49:31.074Z,30.73
2022-12-05T11:52:19.943Z,34.47
2022-12-05T11:55:24.643Z,32.10
2022-12-05T11:58:21.423Z,35.67
2022-12-05T12:01:01.678Z,35.07
2022-12-05T12:03:59.178Z,32.20
2022-12-05T12:06:46.711Z,32.97
2022-12-05T12:09:31.662Z,38.93
2022-12-05T12:12:07.584Z,33.40
2022-12-05T12:14:50.965Z,33.67
2022-12-05T12:17:54.897Z,37.80
2022-12-05T12:21:08.338Z,33.30
2022-12-05T12:23:56.482Z,29.87
2022-12-05T12:27:21.563Z,30.80
2022-12-05T12:30:03.338Z,32.37
2022-12-05T12:32:43.656Z,33.73
2022-12-05T12:35:27.111Z,32.97
2022-12-05T12:38:13.157Z,26.97
2022-12-05T12:41:17.812Z,28.53
2022-12-05T12:44:06.446Z,28.57
2022-12-05T12:46:47.824Z,28.00
2022-12-05T12:49:55.454Z,26.50
2022-12-05T12:52:23.944Z,27.27
2022-12-05T12:55:05.544Z,25.60
2022-12-05T12:57:53.642Z,21.67
2022-12-05T13:00:31.315Z,22.40
2022-12-05T13:03:15.548Z,20.40
2022-12-05T13:05:52.151Z,23.17
2022-12-05T13:09:05.708Z,20.60
2022-12-05T13:11:37.367Z,15.13
2022-12-05T13:14:09.100Z,23.40
2022-12-05T13:16:45.581Z,16.70
2022-12-05T13:19:37.820Z,18.63
2022-12-05T13:22:05.827Z,15.00
2022-12-05T13:24:32.420Z,14.93
2022-12-05T13:27:01.690Z,13.87
2022-12-05T13:29:35.249Z,14.00
2022-12-05T13:32:03.966Z,12.93
2022-12-05T13:34:48.107Z,13.70
2022-12-05T13:37:38.770Z,15.43
2022-12-05T13:40:25.894Z,14.83
2022-12-05T13:43:02.970Z,19.90
2022-12-05T13:45:30.361Z,16.60
2022-12-05T13:47:59.718Z,16.20
2022-12-05T13:50:36.506Z,17.87
2022-12-05T13:53:22.490Z,17.20
2022-12-05T13:56:22.272Z,18.53
2022-12-05T13:58:58.834Z,15.10
2022-12-05T14:01:25.919Z,15.27
2022-12-05T14:03:52.684Z,18.03
2022-12-05T14:06:41.551Z,17.47
2022-12-05T14:09:16.965Z,17.97
2022-12-05T14:12:12.973Z,16.20
2022-12-05T14:15:03.989Z,15.60
2022-12-05T14:17:36.361Z,15.23
2022-12-05T14:20:24.399Z,14.90
2022-12-05T14:23:00.955Z,13.67
2022-12-05T14:25:58.131Z,16.00
2022-12-05T14:28:40.940Z,15.10
2022-12-05T14:31:22.315Z,15.63
2022-12-05T14:34:27.411Z,13.13
2022-12-05T14:37:15.235Z,12.73
2022-12-05T14:39:53.141Z,14.37
2022-12-05T14:42:32.923Z,13.20
2022-12-05T14:45:01.744Z,16.03
2022-12-05T14:47:34.334Z,14.23
2022-12-05T14:50:39.670Z,14.13
2022-12-05T14:53:15.442Z,12.83
2022-12-05T14:55:45.870Z,12.93
2022-12-05T14:58:20.129Z,14.33
2022-12-05T15:00:56.575Z,13.13
2022-12-05T15:03:33.405Z,14.93
2022-12-05T15:06:04.132Z,14.43
2022-12-05T15:08:37.591Z,12.60
2022-12-05T15:11:04.278Z,14.87
2022-12-05T15:13:31.566Z,14.57
2022-12-05T15:16:06.118Z,14.00
2022-12-05T15:18:42.495Z,15.90
2022-12-05T15:21:17.810Z,15.23
2022-12-05T15:23:45.696Z,13.87
2022-12-05T15:29:28.683Z,16.80
2022-12-05T15:31:59.500Z,14.77
2022-12-05T15:34:43.592Z,14.47
2022-12-05T15:37:37.356Z,14.40
2022-12-05T15:40:14.133Z,15.27
2022-12-05T15:42:40.730Z,18.13
2022-12-05T15:45:13.437Z,16.97
2022-12-05T15:47:45.371Z,21.60
2022-12-05T15:50:19.853Z,19.40
2022-12-05T15:52:53.766Z,20.83
2022-12-05T15:55:46.851Z,20.23
2022-12-05T15:58:29.333Z,25.80
2022-12-05T16:01:05.079Z,20.23
2022-12-05T16:03:49.426Z,19.73
2022-12-05T16:06:30.964Z,20.80
2022-12-05T16:08:59.494Z,19.77
2022-12-05T16:11:26.579Z,18.70
2022-12-05T16:14:05.164Z,16.70
2022-12-05T16:16:34.561Z,15.27
2022-12-05T16:19:12.080Z,16.87
2022-12-05T16:21:46.635Z,16.80
2022-12-05T16:24:28.839Z,17.67
2022-12-05T16:27:14.444Z,14.37
2022-12-05T16:29:41.388Z,15.77
2022-12-05T16:32:21.730Z,14.57
2022-12-05T16:34:48.420Z,15.23
2022-12-05T16:37:33.007Z,14.33
2022-12-05T16:39:59.769Z,12.40
2022-12-05T16:42:28.569Z,13.63
2022-12-05T16:45:01.779Z,13.30
2022-12-05T16:47:40.553Z,14.90
2022-12-05T16:50:30.272Z,12.80
2022-12-05T16:53:10.309Z,13.43
2022-12-05T16:55:37.777Z,13.67
2022-12-05T16:58:05.218Z,13.23
2022-12-05T17:00:33.113Z,14.80
2022-12-05T17:03:25.687Z,13.37
2022-12-05T17:05:46.142Z,13.13
2022-12-05T17:08:12.526Z,13.80
2022-12-05T17:10:39.600Z,13.80
2022-12-05T17:13:06.295Z,14.23
2022-12-05T17:15:33.179Z,14.40
2022-12-05T17:18:00.567Z,13.13
2022-12-05T17:20:26.956Z,14.43
2022-12-05T17:22:53.472Z,13.47
2022-12-05T17:25:34.855Z,14.50
2022-12-05T17:28:01.602Z,12.80
2022-12-05T17:30:28.082Z,15.43
2022-12-05T17:32:54.461Z,14.90
2022-12-05T17:35:22.313Z,14.07
2022-12-05T17:37:49.355Z,14.83
2022-12-05T17:40:16.305Z,13.97
2022-12-05T17:42:43.299Z,12.10
2022-12-05T17:45:13.312Z,12.50
2022-12-05T17:47:40.506Z,13.83
2022-12-05T17:50:07.930Z,12.87
2022-12-05T17:52:34.306Z,12.23
2022-12-05T17:55:01.007Z,13.03
2022-12-05T17:57:27.535Z,14.50
2022-12-05T17:59:53.917Z,12.33
2022-12-05T18:02:20.291Z,12.80
2022-12-05T18:04:46.720Z,13.63
2022-12-05T18:07:13.089Z,12.97
2022-12-05T18:09:39.403Z,14.83
2022-12-05T18:12:05.968Z,12.47
2022-12-05T18:14:35.923Z,13.27
2022-12-05T18:17:03.862Z,12.57
2022-12-05T18:19:30.425Z,11.83
2022-12-05T18:21:56.798Z,11.43
2022-12-05T18:24:23.259Z,11.60
2022-12-05T18:26:49.631Z,11.93
2022-12-05T18:29:16.086Z,11.87
2022-12-05T18:31:43.201Z,12.43
2022-12-05T18:34:09.770Z,12.50
2022-12-05T18:36:36.173Z,11.47
2022-12-05T18:39:02.734Z,11.97
2022-12-05T18:41:29.060Z,12.13
2022-12-05T18:43:55.361Z,12.83
2022-12-05T18:46:21.926Z,12.17
2022-12-05T18:48:48.916Z,11.90
2022-12-05T18:51:21.238Z,11.93
2022-12-05T18:53:52.506Z,12.27
2022-12-05T18:56:23.409Z,12.93
2022-12-05T18:58:59.327Z,11.03
2022-12-05T19:01:27.832Z,12.03
2022-12-05T19:03:56.978Z,11.40
2022-12-05T19:06:26.007Z,10.73
2022-12-05T19:08:57.669Z,11.00
2022-12-05T19:11:26.237Z,11.10
2022-12-05T19:14:01.759Z,13.17
2022-12-05T19:16:30.575Z,10.63
2022-12-05T19:18:59.734Z,10.03
2022-12-05T19:21:28.137Z,10.63
2022-12-05T19:23:55.755Z,10.83
2022-12-05T19:26:22.806Z,10.07
2022-12-05T19:28:49.297Z,10.93
2022-12-05T19:31:21.337Z,10.47
2022-12-05T19:33:54.053Z,10.23
2022-12-05T19:36:30.135Z,9.87
2022-12-05T19:38:56.714Z,12.50
2022-12-05T19:41:26.792Z,9.53
2022-12-05T19:43:53.606Z,9.70
2022-12-05T19:46:21.952Z,10.87
2022-12-05T19:48:48.444Z,10.87
2022-12-05T19:51:15.264Z,10.07
2022-12-05T19:53:42.999Z,9.73
2022-12-05T19:56:17.094Z,9.77
2022-12-05T19:58:44.204Z,9.77
2022-12-05T20:01:14.594Z,9.37
2022-12-05T20:03:42.589Z,9.87
2022-12-05T20:06:09.847Z,9.40
2022-12-05T20:08:37.075Z,8.93
2022-12-05T20:11:27.116Z,8.97
2022-12-05T20:13:55.445Z,9.37
2022-12-05T20:16:23.418Z,9.00
2022-12-05T20:18:50.349Z,9.30
2022-12-05T20:21:19.517Z,8.87
2022-12-05T20:23:46.284Z,8.53
2022-12-05T20:26:24.469Z,9.97
2022-12-05T20:28:51.233Z,9.10
2022-12-05T20:31:20.480Z,10.07
2022-12-05T20:33:49.718Z,9.33
2022-12-05T20:36:18.533Z,10.30
2022-12-05T20:38:45.723Z,8.50
2022-12-05T20:41:17.675Z,9.57
2022-12-05T20:43:45.654Z,9.40
2022-12-05T20:46:17.147Z,8.20
2022-12-05T20:48:44.835Z,8.87
2022-12-05T20:51:14.043Z,9.30
2022-12-05T20:53:41.668Z,8.77
2022-12-05T20:56:14.092Z,9.03
2022-12-05T20:58:43.269Z,13.40
2022-12-05T21:01:11.582Z,9.37
2022-12-05T21:03:44.003Z,9.20
2022-12-05T21:06:19.078Z,8.53
2022-12-05T21:08:45.717Z,8.90
2022-12-05T21:11:12.584Z,8.77
2022-12-05T21:13:39.563Z,9.40
2022-12-05T21:16:11.904Z,9.07
2022-12-05T21:18:39.811Z,8.07
2022-12-05T21:21:09.208Z,8.63
2022-12-05T21:23:35.611Z,8.47
2022-12-05T21:26:06.890Z,9.37
2022-12-05T21:28:34.620Z,9.00
2022-12-05T21:31:16.742Z,9.40
2022-12-05T21:33:47.509Z,10.40
2022-12-05T21:36:14.482Z,9.00
2022-12-05T21:38:40.909Z,9.13
2022-12-05T21:41:07.559Z,10.50
2022-12-05T21:43:35.321Z,10.67
2022-12-05T21:46:02.003Z,11.20
2022-12-05T21:48:28.429Z,10.57
2022-12-05T21:50:54.990Z,10.67
2022-12-05T21:53:22.130Z,9.87
2022-12-05T21:55:48.491Z,10.97
2022-12-05T21:58:14.871Z,10.53
2022-12-05T22:00:42.163Z,11.83
2022-12-05T22:03:13.881Z,11.07
2022-12-05T22:05:40.819Z,10.17
2022-12-05T22:08:07.346Z,9.90
2022-12-05T22:10:37.033Z,9.90
2022-12-05T22:13:03.995Z,10.30
2022-12-05T22:15:30.743Z,10.07
2022-12-05T22:17:57.531Z,11.20
2022-12-05T22:20:24.027Z,10.77
2022-12-05T22:22:50.315Z,11.53
2022-12-05T22:25:16.772Z,9.90
2022-12-05T22:27:43.118Z,9.90
2022-12-05T22:30:09.773Z,11.90
2022-12-05T22:32:36.163Z,12.90
2022-12-05T22:35:04.262Z,12.13
2022-12-05T22:37:30.827Z,12.00
2022-12-05T22:39:57.603Z,10.83
2022-12-05T22:42:26.712Z,11.00
2022-12-05T22:44:53.006Z,11.37
2022-12-05T22:47:19.386Z,10.80
2022-12-05T22:49:45.742Z,10.27
2022-12-05T22:52:12.134Z,10.27
2022-12-05T22:54:39.727Z,10.00
2022-12-05T22:57:06.110Z,10.70
2022-12-05T22:59:32.991Z,11.80
2022-12-05T23:01:59.659Z,12.53
2022-12-05T23:04:26.092Z,11.97
2022-12-05T23:06:52.530Z,13.23
2022-12-05T23:09:19.061Z,12.63
2022-12-05T23:11:45.364Z,14.23
2022-12-05T23:14:11.662Z,18.07
2022-12-05T23:16:39.708Z,13.97
2022-12-05T23:19:06.190Z,12.83
2022-12-05T23:21:38.473Z,15.63
2022-12-05T23:24:10.758Z,14.80
2022-12-05T23:26:43.134Z,14.97
2022-12-05T23:29:12.244Z,16.53
2022-12-05T23:31:38.960Z,15.20
2022-12-05T23:34:05.603Z,13.10
2022-12-05T23:36:33.902Z,14.07
2022-12-05T23:39:00.872Z,14.43
2022-12-05T23:41:27.620Z,17.30
2022-12-05T23:43:54.245Z,14.33
2022-12-05T23:46:23.579Z,13.93
2022-12-05T23:48:50.794Z,15.27
2022-12-05T23:51:22.877Z,14.70
2022-12-05T23:53:53.874Z,15.90
2022-12-05T23:56:24.511Z,13.87
2022-12-05T23:58:50.922Z,16.37
